createdAt,value
2023-04-07T00:09:58.715Z,100485.01
2023-04-07T00:25:01.481Z,100476.98
2023-04-07T00:40:05.470Z,100465.21
2023-04-07T00:55:08.814Z,100445.02
2023-04-07T01:10:16.570Z,100431.33
2023-04-07T01:25:35.560Z,100427.48
2023-04-07T01:40:39.494Z,100419.19
2023-04-07T01:55:44.257Z,100415.89
2023-04-07T02:10:48.741Z,100403.67
2023-04-07T02:25:51.365Z,100393.04
2023-04-07T02:40:53.983Z,100383.27
2023-04-07T02:55:57.225Z,100374.42
2023-04-07T03:11:00.478Z,100370.30
2023-04-07T03:26:03.029Z,100364.77
2023-04-07T03:41:05.668Z,100371.80
2023-04-07T03:56:08.542Z,100369.91
2023-04-07T04:11:11.536Z,100358.63
2023-04-07T04:26:14.272Z,100360.17
2023-04-07T04:41:16.915Z,100361.17
2023-04-07T04:56:19.529Z,100367.29
2023-04-07T05:11:22.395Z,100364.55
2023-04-07T05:26:25.165Z,100367.54
2023-04-07T05:41:27.836Z,100373.91
2023-04-07T05:56:30.582Z,100366.86
2023-04-07T06:11:33.505Z,100367.47
2023-04-07T06:26:36.312Z,100375.46
2023-04-07T06:41:39.046Z,100373.65
2023-04-07T06:56:42.955Z,100367.44
2023-04-07T07:11:46.112Z,100366.11
2023-04-07T07:26:48.754Z,100351.26
2023-04-07T07:41:51.391Z,100357.78
2023-04-07T07:56:54.006Z,100375.98
2023-04-07T08:11:56.878Z,100391.60
2023-04-07T08:26:59.613Z,100383.58
2023-04-07T08:42:02.499Z,100383.84
2023-04-07T08:57:05.254Z,100373.32
2023-04-07T09:12:07.911Z,100378.16
2023-04-07T09:27:17.038Z,100379.48
2023-04-07T09:42:21.623Z,100373.84
2023-04-07T09:57:25.011Z,100368.64
2023-04-07T10:12:28.784Z,100372.83
2023-04-07T10:27:56.440Z,100365.67
2023-04-07T10:42:59.470Z,100363.23
2023-04-07T10:58:16.230Z,100358.80
2023-04-07T11:13:18.853Z,100364.88
2023-04-07T11:28:21.536Z,100369.75
2023-04-07T11:43:24.150Z,100366.20
2023-04-07T11:58:26.938Z,100361.55
2023-04-07T12:13:29.599Z,100353.54
2023-04-07T12:28:32.300Z,100344.58
2023-04-07T12:43:35.570Z,100342.63
2023-04-07T12:58:38.216Z,100340.25
2023-04-07T13:13:40.784Z,100329.58
2023-04-07T13:28:45.956Z,100330.48
2023-04-07T13:43:49.382Z,100324.39
2023-04-07T13:58:52.520Z,100325.32
2023-04-07T14:13:57.117Z,100328.88
2023-04-07T14:28:59.729Z,100328.55
2023-04-07T14:44:02.948Z,100329.05
2023-04-07T14:59:05.791Z,100331.45
2023-04-07T15:14:08.562Z,100331.15
2023-04-07T15:29:11.669Z,100342.33
2023-04-07T15:44:18.679Z,100347.80
2023-04-07T15:59:21.383Z,100345.88
2023-04-07T16:14:23.948Z,100331.89
2023-04-07T16:29:26.555Z,100320.76
2023-04-07T16:44:30.047Z,100323.61
2023-04-07T16:59:32.694Z,100328.36
2023-04-07T17:14:35.405Z,100337.48
2023-04-07T17:29:38.008Z,100347.85
2023-04-07T17:44:40.588Z,100358.88
2023-04-07T17:59:43.114Z,100371.96
2023-04-07T18:14:45.703Z,100372.41
2023-04-07T18:29:48.268Z,100383.18
2023-04-07T18:44:50.919Z,100390.66
2023-04-07T18:59:53.591Z,100397.02
2023-04-07T19:14:56.897Z,100398.10
2023-04-07T19:29:59.503Z,100399.20
2023-04-07T19:45:07.159Z,100400.67
2023-04-07T20:00:10.619Z,100396.73
2023-04-07T20:15:13.350Z,100389.42
2023-04-07T20:30:16.529Z,100397.98
2023-04-07T20:45:19.384Z,100403.98
2023-04-07T21:00:21.969Z,100399.80
2023-04-07T21:15:24.565Z,100395.23
2023-04-07T21:30:27.168Z,100409.95
2023-04-07T21:45:29.834Z,100406.27
2023-04-07T22:00:32.657Z,100403.66
2023-04-07T22:15:35.316Z,100407.98
2023-04-07T22:30:38.095Z,100411.93
2023-04-07T22:45:41.127Z,100403.77
2023-04-07T23:00:43.892Z,100413.60
2023-04-07T23:15:46.673Z,100433.37
2023-04-07T23:30:49.358Z,100445.80
2023-04-07T23:45:52.089Z,100446.42
